createdAt,value
2019-03-30T00:03:56.490Z,101521.03
2019-03-30T00:08:03.875Z,101524.06
2019-03-30T00:12:09.606Z,101525.44
2019-03-30T00:16:15.297Z,101518.85
2019-03-30T00:20:32.164Z,101509.70
2019-03-30T00:24:38.026Z,101509.70
2019-03-30T00:28:43.760Z,101509.39
2019-03-30T00:33:08.259Z,101515.04
2019-03-30T00:37:14.085Z,101505.03
2019-03-30T00:41:19.824Z,101503.52
2019-03-30T00:45:37.529Z,101502.59
2019-03-30T00:49:52.118Z,101492.31
2019-03-30T00:58:15.144Z,101488.40
2019-03-30T01:02:22.997Z,101484.55
2019-03-30T01:06:28.751Z,101482.44
2019-03-30T01:10:34.514Z,101477.30
2019-03-30T01:14:52.929Z,101467.58
2019-03-30T01:18:58.709Z,101467.58
2019-03-30T01:23:18.147Z,101464.31
2019-03-30T01:27:23.835Z,101458.19
2019-03-30T01:31:34.244Z,101461.13
2019-03-30T01:35:41.953Z,101456.23
2019-03-30T01:39:47.737Z,101452.92
2019-03-30T01:43:54.365Z,101450.84
2019-03-30T01:48:11.992Z,101454.61
2019-03-30T01:52:18.443Z,101455.67
2019-03-30T02:01:01.307Z,101442.36
2019-03-30T02:05:09.451Z,101442.77
2019-03-30T02:09:15.212Z,101434.36
2019-03-30T02:13:21.145Z,101429.80
2019-03-30T02:17:50.869Z,101425.55
2019-03-30T02:22:10.837Z,101413.16
2019-03-30T02:31:00.002Z,101413.51
2019-03-30T02:35:08.859Z,101413.51
2019-03-30T02:39:14.652Z,101410.06
2019-03-30T02:43:21.922Z,101408.65
2019-03-30T02:47:27.657Z,101408.65
2019-03-30T02:51:52.477Z,101407.59
2019-03-30T02:56:00.377Z,101405.09
2019-03-30T03:00:25.835Z,101407.80
2019-03-30T03:04:31.548Z,101399.37
2019-03-30T03:08:37.329Z,101394.08
2019-03-30T03:12:43.551Z,101397.47
2019-03-30T03:16:49.352Z,101388.97
2019-03-30T03:21:07.225Z,101392.94
2019-03-30T03:25:13.830Z,101381.64
2019-03-30T03:29:19.600Z,101381.64
2019-03-30T03:33:25.251Z,101382.08
2019-03-30T03:37:44.742Z,101383.64
2019-03-30T03:41:57.406Z,101380.73
2019-03-30T03:46:14.430Z,101374.45
2019-03-30T03:50:57.773Z,101371.32
2019-03-30T04:00:20.620Z,101367.89
2019-03-30T04:13:54.148Z,101355.52
2019-03-30T04:17:59.872Z,101356.98
2019-03-30T04:22:05.715Z,101350.61
2019-03-30T04:26:11.506Z,101342.34
2019-03-30T04:30:17.217Z,101346.71
2019-03-30T04:34:22.928Z,101342.11
2019-03-30T04:38:28.773Z,101330.11
2019-03-30T04:42:34.459Z,101328.23
2019-03-30T04:46:40.295Z,101326.50
2019-03-30T04:50:45.975Z,101322.67
2019-03-30T04:54:51.718Z,101317.90
2019-03-30T04:58:57.506Z,101322.02
2019-03-30T05:03:03.260Z,101308.56
2019-03-30T05:07:09.036Z,101312.88
2019-03-30T05:11:14.891Z,101308.94
2019-03-30T05:15:20.566Z,101309.08
2019-03-30T05:19:26.620Z,101304.33
2019-03-30T05:23:32.288Z,101306.57
2019-03-30T05:27:38.031Z,101309.77
2019-03-30T05:31:43.770Z,101304.73
2019-03-30T05:35:49.458Z,101295.66
2019-03-30T05:39:55.323Z,101291.61
2019-03-30T05:44:01.015Z,101298.63
2019-03-30T05:48:06.754Z,101291.16
2019-03-30T05:52:25.928Z,101299.08
2019-03-30T05:56:25.632Z,101297.43
2019-03-30T06:00:31.360Z,101297.61
2019-03-30T06:04:37.226Z,101299.89
2019-03-30T06:08:42.964Z,101294.50
2019-03-30T06:12:48.664Z,101303.06
2019-03-30T06:16:54.689Z,101294.33
2019-03-30T06:21:00.350Z,101294.08
2019-03-30T06:25:06.086Z,101296.01
2019-03-30T06:33:36.386Z,101307.33
2019-03-30T06:37:53.681Z,101307.91
2019-03-30T06:41:59.384Z,101311.33
2019-03-30T06:46:05.120Z,101311.20
2019-03-30T06:50:11.266Z,101312.80
2019-03-30T06:54:17.231Z,101310.47
2019-03-30T06:58:23.023Z,101313.84
2019-03-30T07:07:05.988Z,101313.31
2019-03-30T07:11:50.857Z,101313.31
2019-03-30T07:20:33.954Z,101324.78
2019-03-30T07:24:39.712Z,101311.37
2019-03-30T07:28:47.156Z,101318.55
2019-03-30T07:32:57.929Z,101323.16
2019-03-30T07:37:03.718Z,101325.75
2019-03-30T07:41:09.354Z,101316.03
2019-03-30T07:45:26.500Z,101315.32
2019-03-30T07:49:53.714Z,101322.67
2019-03-30T07:53:59.465Z,101317.72
2019-03-30T07:58:24.011Z,101315.76
2019-03-30T08:02:29.762Z,101315.76
2019-03-30T08:06:35.491Z,101329.54
2019-03-30T08:10:42.548Z,101327.36
2019-03-30T08:14:48.242Z,101332.58
2019-03-30T08:18:54.137Z,101331.63
2019-03-30T08:22:59.958Z,101336.31
2019-03-30T08:27:05.826Z,101327.75
2019-03-30T08:31:11.887Z,101335.99
2019-03-30T08:35:20.250Z,101335.42
2019-03-30T08:39:26.360Z,101334.39
2019-03-30T08:43:32.263Z,101334.58
2019-03-30T08:47:40.371Z,101338.22
2019-03-30T08:51:46.595Z,101343.80
2019-03-30T08:55:52.597Z,101348.13
2019-03-30T08:59:58.444Z,101347.42
2019-03-30T09:04:04.433Z,101343.44
2019-03-30T09:08:10.493Z,101338.17
2019-03-30T09:12:16.299Z,101350.41
2019-03-30T09:16:34.722Z,101343.91
2019-03-30T09:20:40.525Z,101341.47
2019-03-30T09:24:47.943Z,101335.89
2019-03-30T09:28:54.066Z,101332.00
2019-03-30T09:37:32.257Z,101330.66
2019-03-30T09:41:38.161Z,101327.59
2019-03-30T09:45:44.140Z,101330.42
2019-03-30T09:49:50.284Z,101326.17
2019-03-30T09:53:56.250Z,101322.17
2019-03-30T09:58:02.648Z,101321.32
2019-03-30T10:02:08.546Z,101314.95
2019-03-30T10:06:14.409Z,101309.51
2019-03-30T10:10:20.110Z,101317.02
2019-03-30T10:14:25.805Z,101298.19
2019-03-30T10:18:31.540Z,101304.66
2019-03-30T10:22:37.531Z,101308.31
2019-03-30T10:26:43.228Z,101313.75
2019-03-30T10:30:48.968Z,101306.83
2019-03-30T10:34:54.694Z,101304.59
2019-03-30T10:39:00.339Z,101308.98
2019-03-30T10:43:07.672Z,101297.94
2019-03-30T10:47:13.523Z,101299.63
2019-03-30T10:51:19.514Z,101285.36
2019-03-30T10:55:25.456Z,101305.00
2019-03-30T10:59:31.267Z,101300.52
2019-03-30T11:03:37.028Z,101291.33
2019-03-30T11:07:42.776Z,101287.16
2019-03-30T11:16:20.221Z,101290.35
2019-03-30T11:20:27.692Z,101285.46
2019-03-30T11:24:33.917Z,101285.89
2019-03-30T11:28:59.217Z,101289.92
2019-03-30T11:33:06.078Z,101285.64
2019-03-30T11:37:12.527Z,101293.80
2019-03-30T11:41:18.334Z,101283.38
2019-03-30T11:45:24.265Z,101274.26
2019-03-30T11:49:31.522Z,101268.31
2019-03-30T11:53:38.578Z,101270.06
2019-03-30T11:57:48.622Z,101263.69
2019-03-30T12:01:54.406Z,101263.69
2019-03-30T12:06:00.138Z,101251.29
2019-03-30T12:10:07.394Z,101254.55
2019-03-30T12:14:13.121Z,101245.56
2019-03-30T12:18:19.493Z,101249.85
2019-03-30T12:27:32.326Z,101238.22
2019-03-30T12:31:38.136Z,101238.22
2019-03-30T12:35:43.916Z,101231.95
2019-03-30T12:39:49.780Z,101231.25
2019-03-30T12:43:55.590Z,101224.51
2019-03-30T12:48:04.655Z,101224.16
2019-03-30T12:52:29.342Z,101215.55
2019-03-30T12:56:35.086Z,101216.32
2019-03-30T13:00:40.875Z,101215.75
2019-03-30T13:04:46.594Z,101225.63
2019-03-30T13:08:52.290Z,101209.98
2019-03-30T13:12:58.020Z,101213.13
2019-03-30T13:17:03.776Z,101209.46
2019-03-30T13:21:09.546Z,101198.80
2019-03-30T13:25:15.325Z,101206.48
2019-03-30T13:29:21.138Z,101200.48
2019-03-30T13:38:20.652Z,101203.93
2019-03-30T13:42:30.951Z,101202.84
2019-03-30T13:46:36.635Z,101197.38
2019-03-30T13:50:44.112Z,101185.66
2019-03-30T13:54:49.954Z,101193.53
2019-03-30T13:58:57.105Z,101185.55
2019-03-30T14:03:03.007Z,101191.96
2019-03-30T14:07:09.001Z,101175.28
2019-03-30T14:11:14.688Z,101176.03
2019-03-30T14:19:24.714Z,101157.55
2019-03-30T14:23:30.723Z,101157.39
2019-03-30T14:27:36.440Z,101165.13
2019-03-30T14:31:42.164Z,101160.70
2019-03-30T14:35:48.020Z,101149.74
2019-03-30T14:39:53.729Z,101145.13
2019-03-30T14:44:18.675Z,101147.48
2019-03-30T14:48:24.402Z,101153.52
2019-03-30T14:52:30.095Z,101138.19
2019-03-30T14:56:45.359Z,101140.41
2019-03-30T15:01:03.317Z,101141.38
2019-03-30T15:05:54.408Z,101140.73
2019-03-30T15:10:00.407Z,101141.86
2019-03-30T15:14:06.341Z,101142.45
2019-03-30T15:18:12.103Z,101140.11
2019-03-30T15:22:18.166Z,101136.97
2019-03-30T15:26:23.876Z,101136.03
2019-03-30T15:30:29.655Z,101129.22
2019-03-30T15:34:35.458Z,101123.09
2019-03-30T15:38:41.165Z,101118.44
2019-03-30T15:42:46.938Z,101109.70
2019-03-30T15:46:52.652Z,101125.55
2019-03-30T15:55:16.798Z,101104.29
2019-03-30T15:59:22.483Z,101108.03
2019-03-30T16:03:28.205Z,101103.30
2019-03-30T16:07:33.904Z,101108.42
2019-03-30T16:11:40.070Z,101101.36
2019-03-30T16:15:45.781Z,101103.94
2019-03-30T16:19:54.310Z,101096.59
2019-03-30T16:24:00.027Z,101103.84
2019-03-30T16:28:05.698Z,101109.27
2019-03-30T16:32:11.370Z,101108.08
2019-03-30T16:36:17.091Z,101107.73
2019-03-30T16:40:22.860Z,101101.57
2019-03-30T16:44:28.529Z,101101.76
2019-03-30T16:48:34.240Z,101097.89
2019-03-30T16:52:41.107Z,101097.14
2019-03-30T16:56:53.563Z,101095.23
2019-03-30T17:00:59.369Z,101096.85
2019-03-30T17:05:05.662Z,101102.01
2019-03-30T17:09:12.948Z,101101.70
2019-03-30T17:13:18.805Z,101105.44
2019-03-30T17:17:24.578Z,101100.74
2019-03-30T17:21:30.313Z,101100.79
2019-03-30T17:25:36.058Z,101096.39
2019-03-30T17:29:42.168Z,101093.95
2019-03-30T17:33:48.329Z,101091.71
2019-03-30T17:37:54.138Z,101090.67
2019-03-30T17:42:00.002Z,101078.68
2019-03-30T17:46:05.835Z,101083.48
2019-03-30T17:50:32.242Z,101091.05
2019-03-30T17:54:39.882Z,101086.61
2019-03-30T17:58:55.061Z,101089.84
2019-03-30T18:03:01.145Z,101089.00
2019-03-30T18:07:13.783Z,101091.67
2019-03-30T18:11:25.737Z,101092.75
2019-03-30T18:15:34.501Z,101088.80
2019-03-30T18:24:13.047Z,101090.60
2019-03-30T18:28:26.960Z,101091.00
2019-03-30T18:32:45.526Z,101094.44
2019-03-30T18:37:02.465Z,101100.55
2019-03-30T18:41:08.236Z,101101.78
2019-03-30T18:49:51.968Z,101111.69
2019-03-30T18:54:23.786Z,101111.66
2019-03-30T18:58:40.938Z,101118.05
2019-03-30T19:02:55.941Z,101116.51
2019-03-30T19:07:01.722Z,101118.73
2019-03-30T19:11:07.498Z,101112.33
2019-03-30T19:15:13.160Z,101118.57
2019-03-30T19:19:18.782Z,101124.25
2019-03-30T19:23:24.439Z,101122.12
2019-03-30T19:27:30.883Z,101129.18
2019-03-30T19:31:36.713Z,101120.37
2019-03-30T19:35:42.399Z,101124.85
2019-03-30T19:39:48.099Z,101122.22
2019-03-30T19:43:53.888Z,101129.34
2019-03-30T19:47:59.690Z,101130.86
2019-03-30T19:52:05.971Z,101125.78
2019-03-30T19:56:12.040Z,101134.59
2019-03-30T20:05:19.328Z,101134.27
2019-03-30T20:09:25.018Z,101142.27
2019-03-30T20:13:30.739Z,101137.70
2019-03-30T20:17:36.520Z,101138.95
2019-03-30T20:26:00.431Z,101132.26
2019-03-30T20:30:18.715Z,101139.31
2019-03-30T20:34:24.436Z,101139.67
2019-03-30T20:38:30.937Z,101145.57
2019-03-30T20:42:36.704Z,101140.09
2019-03-30T20:46:43.798Z,101143.34
2019-03-30T20:50:55.292Z,101148.39
2019-03-30T20:55:01.044Z,101150.51
2019-03-30T20:59:06.788Z,101143.39
2019-03-30T21:03:12.928Z,101146.23
2019-03-30T21:07:20.843Z,101151.81
2019-03-30T21:11:26.559Z,101159.01
2019-03-30T21:15:32.290Z,101156.15
2019-03-30T21:19:38.123Z,101157.09
2019-03-30T21:23:43.832Z,101148.42
2019-03-30T21:27:49.540Z,101150.80
2019-03-30T21:31:55.210Z,101149.39
2019-03-30T21:36:00.981Z,101154.71
2019-03-30T21:40:07.108Z,101154.07
2019-03-30T21:44:22.059Z,101148.46
2019-03-30T21:48:39.704Z,101148.78
2019-03-30T21:52:45.515Z,101146.91
2019-03-30T21:56:51.296Z,101147.94
2019-03-30T22:00:59.848Z,101151.48
2019-03-30T22:05:10.290Z,101151.73
2019-03-30T22:09:16.067Z,101154.33
2019-03-30T22:13:22.086Z,101164.57
2019-03-30T22:17:28.131Z,101160.23
2019-03-30T22:21:34.128Z,101156.13
2019-03-30T22:25:39.896Z,101161.93
2019-03-30T22:29:45.578Z,101160.42
2019-03-30T22:33:51.279Z,101168.52
2019-03-30T22:37:56.982Z,101170.84
2019-03-30T22:42:02.639Z,101165.28
2019-03-30T22:46:09.488Z,101169.43
2019-03-30T22:50:15.207Z,101162.23
2019-03-30T22:54:20.963Z,101157.75
2019-03-30T22:58:26.667Z,101155.89
2019-03-30T23:02:32.676Z,101150.89
2019-03-30T23:06:38.362Z,101150.50
2019-03-30T23:10:44.147Z,101146.91
2019-03-30T23:14:49.847Z,101143.96
2019-03-30T23:18:55.636Z,101143.96
2019-03-30T23:23:01.391Z,101139.89
2019-03-30T23:27:07.086Z,101141.55
2019-03-30T23:31:12.928Z,101131.00
2019-03-30T23:35:18.788Z,101131.00
2019-03-30T23:39:24.646Z,101135.30
2019-03-30T23:43:30.414Z,101137.09
2019-03-30T23:47:36.079Z,101129.02
2019-03-30T23:51:41.873Z,101126.77
2019-03-30T23:55:47.686Z,101127.28
2019-03-30T23:59:53.422Z,101120.12
